Aeroporto :
LOGIN :

Iscrizione | Disclaimer

   EN    FR    IT 

 










Sommario :    VFR   VFR Marginale   IFR   IFR Intensivo   IFR Molto Intensivo
Visibilità : 
Base nubi : 
>= 8 km
>= 3000ft
5 / 8 km
1000 / 3000 ft
1500m / 5 km
500 / 1000 ft
800 / 1500m
200 / 500 ft
< 800m
< 200 ft
Simboli :   Temporali  Nebbia  Neve Forte  Precipitazioni Forti  Vento > 20 kt
SIGMETs :   Varie  Temporali  Ghiacco  Turbolenza  Onda orograficha  Ceneri Vulcaniche






- Altitudine del aeroporto : 1906 ft
- Codice IATA : INN


LOWI - Innsbruck

ULTIMO METAR :
  • 141450Z 28012KT CAVOK 28/02 Q1018 NOSIG

METARs OBSOLETI :
  • 141420Z 27008KT 230V310 CAVOK 29/02 Q1018 NOSIG
  • 141350Z VRB01KT CAVOK 29/04 Q1018 BECMG 27010KT
  • 141320Z 04003KT 360V100 CAVOK 28/09 Q1019 NOSIG
  • 141250Z VRB02KT CAVOK 27/04 Q1020 NOSIG
  • 141220Z VRB01KT CAVOK 27/05 Q1020 TEMPO 09007KT
  • 141150Z VRB02KT CAVOK 25/02 Q1021 TEMPO 09007KT
  • 141120Z VRB02KT CAVOK 24/06 Q1021 TEMPO 09007KT
  • 141050Z VRB01KT CAVOK 23/03 Q1022 TEMPO 09007KT
  • 141020Z 29004KT 230V340 CAVOK 22/03 Q1023 NOSIG

TAF TAF LOWI
Valido dal 14 a 12 ore il 15 a 12 ore UTC


141115Z 1412/1512 09007KT CAVOK TX28/1415Z TN11/1503Z
PROB30
TEMPO 1412/1418 27015G25KT
BECMG 1416/1418 27003KT
TEMPO 1508/1512 27015G25KT -SHRA FEW060CB BKN080



MetMap, La meteo Aeronautica in un colpo d'occhio ! - Copyright ORBIFLY Dicembre 2007 - Disclaimer

ORBIFLY MET'MAP TEAM :

Programmazione e sviluppo : Alexandra Zaïnal
Concezione : Baudouin d'Aumeries
Supporto tecnico e logistico : Manuel Goepfert
Aiuto : Marc-Olivier Méhu
Aiuto per la traduzione : Arnaldo La Scala




FONTI E CREDITI :

   NOAA